Time;durP1;ratioP1;P1;durP2;ratioP2;P2;SDS_P1;SDS_P2;PMS_P1;PMS_P2;Temp;Humidity;BMP_temperature;BMP_pressure;BME280_temperature;BME280_humidity;BME280_pressure;Samples;Min_cycle;Max_cycle;Signal;HPM_P1;HPM_P2
2021/09/20 00:01:39;;;;;;;;;0.00;0.00;;;;;;;;5092105;27;45477;-82
2021/09/20 00:04:04;;;;;;;;;1.75;0.00;;;;;;;;5094177;27;45433;-82
2021/09/20 00:06:30;;;;;;;;;0.33;0.33;;;;;;;;5099991;27;45919;-81
2021/09/20 00:08:55;;;;;;;;;1.00;0.33;;;;;;;;5097713;27;45489;-81
2021/09/20 00:11:20;;;;;;;;;1.00;0.00;;;;;;;;5094096;27;45375;-81
2021/09/20 00:13:45;;;;;;;;;0.00;0.00;;;;;;;;5092225;27;48631;-81
2021/09/20 00:16:11;;;;;;;;;2.00;0.33;;;;;;;;5095569;27;45387;-81
2021/09/20 00:18:36;;;;;;;;;1.67;0.00;;;;;;;;5093817;27;45498;-81
2021/09/20 00:21:01;;;;;;;;;0.67;0.00;;;;;;;;5095665;27;45443;-81
2021/09/20 00:23:26;;;;;;;;;0.00;0.00;;;;;;;;5095682;27;45335;-81
2021/09/20 00:25:53;;;;;;;;;3.00;0.00;;;;;;;;5092269;27;45480;-81
2021/09/20 00:28:18;;;;;;;;;0.00;0.00;;;;;;;;5093395;27;45744;-81
2021/09/20 00:30:43;;;;;;;;;3.00;0.25;;;;;;;;5097870;27;45496;-81
2021/09/20 00:33:09;;;;;;;;;2.00;0.25;;;;;;;;5104669;27;45636;-81
2021/09/20 00:35:34;;;;;;;;;0.25;0.25;;;;;;;;5086129;27;46148;-81
2021/09/20 00:37:59;;;;;;;;;4.00;0.33;;;;;;;;5089783;27;45518;-81
2021/09/20 00:40:24;;;;;;;;;1.00;0.00;;;;;;;;5092955;27;45611;-81
2021/09/20 00:42:49;;;;;;;;;1.00;0.00;;;;;;;;5093857;27;45557;-81
2021/09/20 00:45:15;;;;;;;;;0.00;0.00;;;;;;;;5092004;27;47588;-81
2021/09/20 00:47:40;;;;;;;;;0.00;0.00;;;;;;;;5096916;27;45417;-81
2021/09/20 00:50:06;;;;;;;;;1.33;0.00;;;;;;;;5090592;27;45398;-82
2021/09/20 00:52:31;;;;;;;;;0.75;0.75;;;;;;;;5095031;27;45488;-81
2021/09/20 00:54:56;;;;;;;;;0.00;0.00;;;;;;;;5091577;27;46119;-81
2021/09/20 00:57:22;;;;;;;;;1.00;0.00;;;;;;;;5095710;27;45487;-81
2021/09/20 00:59:47;;;;;;;;;1.00;1.00;;;;;;;;5093139;27;45733;-81
2021/09/20 01:02:12;;;;;;;;;1.00;0.00;;;;;;;;5090588;27;45791;-81
2021/09/20 01:04:37;;;;;;;;;0.00;0.00;;;;;;;;5085547;27;45605;-81
2021/09/20 01:07:03;;;;;;;;;0.00;0.00;;;;;;;;5088239;27;45404;-81
2021/09/20 01:09:28;;;;;;;;;2.00;0.00;;;;;;;;5085102;27;46003;-81
2021/09/20 01:11:54;;;;;;;;;2.00;1.00;;;;;;;;5093396;27;45613;-81
2021/09/20 01:14:19;;;;;;;;;1.25;0.00;;;;;;;;5091582;27;46269;-81
2021/09/20 01:16:44;;;;;;;;;0.00;0.00;;;;;;;;5094014;27;45529;-81
2021/09/20 01:19:09;;;;;;;;;0.00;0.00;;;;;;;;5100328;27;45414;-81
2021/09/20 01:21:35;;;;;;;;;0.00;0.00;;;;;;;;5097240;27;45354;-81
2021/09/20 01:24:00;;;;;;;;;1.00;0.00;;;;;;;;5095849;27;46285;-81
2021/09/20 01:26:25;;;;;;;;;0.67;0.67;;;;;;;;5097780;27;45789;-81
2021/09/20 01:28:51;;;;;;;;;1.50;0.75;;;;;;;;5093851;27;45478;-81
2021/09/20 01:31:16;;;;;;;;;3.00;1.67;;;;;;;;5099172;27;45418;-81
2021/09/20 01:33:41;;;;;;;;;0.00;0.00;;;;;;;;5094148;27;46275;-81
2021/09/20 01:36:06;;;;;;;;;2.00;1.00;;;;;;;;5096420;27;45412;-81
2021/09/20 01:38:32;;;;;;;;;1.33;1.00;;;;;;;;5096072;27;45316;-81
2021/09/20 01:40:57;;;;;;;;;1.00;0.00;;;;;;;;5094862;27;45648;-81
2021/09/20 01:43:22;;;;;;;;;3.00;1.00;;;;;;;;5098657;27;46111;-81
2021/09/20 01:45:48;;;;;;;;;2.00;2.00;;;;;;;;5097325;27;45711;-81
2021/09/20 01:48:13;;;;;;;;;1.00;1.00;;;;;;;;5097304;27;45435;-81
2021/09/20 01:50:39;;;;;;;;;0.75;0.75;;;;;;;;5081008;27;47012;-82
2021/09/20 01:53:04;;;;;;;;;1.50;1.50;;;;;;;;5091963;27;46068;-81
2021/09/20 01:55:30;;;;;;;;;1.00;1.00;;;;;;;;5095666;27;45510;-81
2021/09/20 01:57:55;;;;;;;;;2.50;0.00;;;;;;;;5096184;27;45966;-81
2021/09/20 02:00:21;;;;;;;;;1.00;1.00;;;;;;;;5095335;27;45952;-82
2021/09/20 02:02:46;;;;;;;;;1.00;1.00;;;;;;;;5094712;27;47416;-81
2021/09/20 02:05:12;;;;;;;;;1.00;1.00;;;;;;;;5088233;27;45427;-82
2021/09/20 02:07:37;;;;;;;;;2.00;1.00;;;;;;;;5098026;27;45518;-81
2021/09/20 02:10:04;;;;;;;;;1.00;1.00;;;;;;;;5094565;27;45560;-82
2021/09/20 02:12:29;;;;;;;;;0.50;0.50;;;;;;;;5100745;27;46016;-81
2021/09/20 02:14:54;;;;;;;;;0.67;0.67;;;;;;;;5098307;27;45499;-81
2021/09/20 02:17:19;;;;;;;;;0.33;0.33;;;;;;;;5096152;27;45856;-82
2021/09/20 02:19:44;;;;;;;;;0.33;0.33;;;;;;;;5092690;27;45490;-81
2021/09/20 02:22:10;;;;;;;;;0.00;0.00;;;;;;;;5097393;27;46149;-82
2021/09/20 02:24:35;;;;;;;;;2.67;1.00;;;;;;;;5092123;27;45516;-81
2021/09/20 02:27:00;;;;;;;;;0.00;0.00;;;;;;;;5092637;27;45638;-81
2021/09/20 02:29:26;;;;;;;;;1.75;0.00;;;;;;;;5090939;27;45664;-81
2021/09/20 02:31:51;;;;;;;;;2.25;0.00;;;;;;;;5103017;27;46763;-82
2021/09/20 02:34:17;;;;;;;;;0.00;0.00;;;;;;;;5104275;27;45562;-81
2021/09/20 02:36:43;;;;;;;;;1.00;1.00;;;;;;;;5097232;27;45733;-82
2021/09/20 02:39:08;;;;;;;;;0.00;0.00;;;;;;;;5097006;27;45475;-82
2021/09/20 02:41:33;;;;;;;;;1.00;1.00;;;;;;;;5092918;27;45840;-81
2021/09/20 02:43:58;;;;;;;;;1.75;1.00;;;;;;;;5083321;27;45552;-81
2021/09/20 02:46:24;;;;;;;;;0.33;0.33;;;;;;;;5093215;27;45593;-82
2021/09/20 02:48:49;;;;;;;;;0.00;0.00;;;;;;;;5092151;27;45503;-81
2021/09/20 02:51:14;;;;;;;;;1.50;0.25;;;;;;;;5091404;27;47386;-81
2021/09/20 02:53:40;;;;;;;;;1.00;1.00;;;;;;;;5094054;27;45547;-81
2021/09/20 02:56:06;;;;;;;;;0.00;0.00;;;;;;;;5091181;27;45474;-81
2021/09/20 02:58:31;;;;;;;;;0.00;0.00;;;;;;;;5093833;27;45461;-81
2021/09/20 03:00:57;;;;;;;;;2.50;1.00;;;;;;;;5094132;27;45572;-82
2021/09/20 03:03:22;;;;;;;;;0.50;0.50;;;;;;;;5093125;27;45552;-81
2021/09/20 03:05:47;;;;;;;;;2.00;0.00;;;;;;;;5092646;27;45958;-81
2021/09/20 03:08:13;;;;;;;;;0.00;0.00;;;;;;;;5091843;27;45593;-82
2021/09/20 03:10:38;;;;;;;;;2.00;0.00;;;;;;;;5092864;27;45511;-82
2021/09/20 03:13:03;;;;;;;;;0.33;0.33;;;;;;;;5093343;27;45834;-81
2021/09/20 03:15:28;;;;;;;;;0.50;0.50;;;;;;;;5094913;27;46654;-82
2021/09/20 03:17:54;;;;;;;;;1.00;1.00;;;;;;;;5093236;27;45605;-82
2021/09/20 03:20:19;;;;;;;;;2.00;0.00;;;;;;;;5091194;27;46677;-81
2021/09/20 03:22:44;;;;;;;;;1.00;1.00;;;;;;;;5094773;27;45365;-82
2021/09/20 03:25:10;;;;;;;;;1.50;0.25;;;;;;;;5094172;27;45442;-83
2021/09/20 03:27:36;;;;;;;;;1.00;1.00;;;;;;;;5098793;27;45893;-81
2021/09/20 03:30:03;;;;;;;;;0.25;0.25;;;;;;;;5090744;27;45653;-82
2021/09/20 03:32:28;;;;;;;;;1.00;0.00;;;;;;;;5091375;27;45957;-81
2021/09/20 03:34:53;;;;;;;;;3.00;0.00;;;;;;;;5090362;27;45424;-81
2021/09/20 03:37:18;;;;;;;;;1.00;1.00;;;;;;;;5090972;27;45807;-82
2021/09/20 03:39:44;;;;;;;;;1.00;0.00;;;;;;;;5089838;27;45598;-81
2021/09/20 03:42:09;;;;;;;;;1.50;0.00;;;;;;;;5092821;27;45355;-82
2021/09/20 03:44:34;;;;;;;;;1.50;1.50;;;;;;;;5092561;27;45754;-82
2021/09/20 03:46:59;;;;;;;;;2.33;1.00;;;;;;;;5092459;27;45481;-81
2021/09/20 03:49:25;;;;;;;;;2.50;1.00;;;;;;;;5091730;27;47403;-81
2021/09/20 03:51:50;;;;;;;;;1.75;1.00;;;;;;;;5093702;27;45630;-82
2021/09/20 03:54:15;;;;;;;;;3.00;1.00;;;;;;;;5097363;27;45446;-82
2021/09/20 03:56:41;;;;;;;;;1.00;1.00;;;;;;;;5096875;27;45734;-82
2021/09/20 03:59:06;;;;;;;;;0.00;0.00;;;;;;;;5090707;27;45432;-81
2021/09/20 04:01:31;;;;;;;;;1.00;1.00;;;;;;;;5093953;27;45888;-82
2021/09/20 04:03:58;;;;;;;;;0.75;0.75;;;;;;;;5095957;27;45583;-81
2021/09/20 04:06:23;;;;;;;;;0.50;0.50;;;;;;;;5092025;27;45604;-81
2021/09/20 04:08:48;;;;;;;;;1.00;1.00;;;;;;;;5095371;27;45547;-81
2021/09/20 04:11:13;;;;;;;;;2.00;1.00;;;;;;;;5090012;27;45325;-81
2021/09/20 04:13:39;;;;;;;;;3.00;0.00;;;;;;;;5090981;27;45482;-81
2021/09/20 04:16:04;;;;;;;;;0.00;0.00;;;;;;;;5095391;27;45470;-81
2021/09/20 04:18:29;;;;;;;;;2.00;1.00;;;;;;;;5089354;27;45977;-81
2021/09/20 04:20:55;;;;;;;;;0.00;0.00;;;;;;;;5095582;27;45542;-81
2021/09/20 04:23:23;;;;;;;;;1.00;1.00;;;;;;;;5091221;27;45709;-81
2021/09/20 04:25:49;;;;;;;;;2.00;1.00;;;;;;;;5092823;27;45436;-81
2021/09/20 04:28:14;;;;;;;;;1.00;1.00;;;;;;;;5094361;27;45563;-81
2021/09/20 04:30:43;;;;;;;;;0.25;0.25;;;;;;;;5095931;27;45432;-81
2021/09/20 04:33:08;;;;;;;;;1.75;1.00;;;;;;;;5089370;27;45510;-81
2021/09/20 04:35:34;;;;;;;;;3.00;1.00;;;;;;;;5096378;27;45492;-81
2021/09/20 04:37:59;;;;;;;;;0.33;0.00;;;;;;;;5089493;27;45485;-81
2021/09/20 04:40:24;;;;;;;;;1.00;1.00;;;;;;;;5097063;27;45382;-82
2021/09/20 04:42:49;;;;;;;;;3.33;1.00;;;;;;;;5100417;27;45615;-81
2021/09/20 04:45:14;;;;;;;;;2.00;0.33;;;;;;;;5104550;27;48941;-81
2021/09/20 04:47:40;;;;;;;;;1.00;0.67;;;;;;;;5094609;27;46276;-82
2021/09/20 04:50:05;;;;;;;;;0.33;0.33;;;;;;;;5087724;27;45461;-82
2021/09/20 04:52:30;;;;;;;;;1.00;1.00;;;;;;;;5096537;27;45754;-81
2021/09/20 04:54:56;;;;;;;;;1.00;1.00;;;;;;;;5101129;27;45339;-81
2021/09/20 04:57:21;;;;;;;;;1.00;1.00;;;;;;;;5099000;27;45589;-81
2021/09/20 04:59:46;;;;;;;;;1.50;1.50;;;;;;;;5092956;27;45288;-81
2021/09/20 05:02:11;;;;;;;;;2.00;2.00;;;;;;;;5095833;27;45453;-82
2021/09/20 05:04:36;;;;;;;;;3.00;2.00;;;;;;;;5099078;27;45657;-82
2021/09/20 05:07:02;;;;;;;;;1.67;1.00;;;;;;;;5092953;27;45522;-82
2021/09/20 05:09:27;;;;;;;;;2.00;1.00;;;;;;;;5092269;27;45516;-82
2021/09/20 05:11:52;;;;;;;;;1.67;1.67;;;;;;;;5082721;27;46973;-82
2021/09/20 05:14:17;;;;;;;;;3.00;2.00;;;;;;;;5095232;27;45794;-82
2021/09/20 05:16:43;;;;;;;;;2.00;2.00;;;;;;;;5093130;27;45600;-82
2021/09/20 05:19:08;;;;;;;;;3.00;3.00;;;;;;;;5094028;27;45696;-82
2021/09/20 05:21:33;;;;;;;;;4.00;0.67;;;;;;;;5091476;27;45537;-83
2021/09/20 05:23:58;;;;;;;;;4.67;3.00;;;;;;;;5098076;27;45428;-82
2021/09/20 05:26:24;;;;;;;;;3.67;3.67;;;;;;;;5092675;27;45512;-83
2021/09/20 05:28:49;;;;;;;;;4.00;2.67;;;;;;;;5098270;27;45769;-83
2021/09/20 05:31:14;;;;;;;;;3.67;2.00;;;;;;;;5098572;27;45476;-83
2021/09/20 05:33:39;;;;;;;;;4.00;4.00;;;;;;;;5096463;27;45411;-82
2021/09/20 05:36:05;;;;;;;;;3.00;3.00;;;;;;;;5095369;27;45786;-80
2021/09/20 05:38:31;;;;;;;;;3.00;3.00;;;;;;;;5082415;27;45962;-83
2021/09/20 05:40:57;;;;;;;;;6.25;2.25;;;;;;;;5091245;27;45570;-83
2021/09/20 05:43:22;;;;;;;;;3.67;3.67;;;;;;;;5102063;27;45471;-83
2021/09/20 05:45:47;;;;;;;;;4.00;4.00;;;;;;;;5095702;27;45466;-83
2021/09/20 05:48:15;;;;;;;;;4.50;3.75;;;;;;;;5096484;27;45443;-83
2021/09/20 05:50:40;;;;;;;;;4.75;4.00;;;;;;;;5084831;27;45438;-83
2021/09/20 05:53:05;;;;;;;;;3.50;3.50;;;;;;;;5091716;27;45480;-83
2021/09/20 05:55:31;;;;;;;;;3.67;3.67;;;;;;;;5099296;27;45448;-83
2021/09/20 05:57:56;;;;;;;;;3.67;3.67;;;;;;;;5097244;27;45422;-83
2021/09/20 06:00:21;;;;;;;;;5.00;4.50;;;;;;;;5096516;27;45391;-83
2021/09/20 06:02:47;;;;;;;;;6.00;6.00;;;;;;;;5094647;27;45502;-82
2021/09/20 06:05:14;;;;;;;;;5.75;4.25;;;;;;;;5093156;27;45845;-83
2021/09/20 06:07:39;;;;;;;;;5.00;5.00;;;;;;;;5094963;27;45810;-83
2021/09/20 06:10:05;;;;;;;;;9.00;8.00;;;;;;;;5103319;27;45379;-83
2021/09/20 06:12:31;;;;;;;;;6.25;4.25;;;;;;;;5101234;27;45498;-82
2021/09/20 06:14:56;;;;;;;;;7.50;6.00;;;;;;;;5096117;27;45811;-82
2021/09/20 06:17:21;;;;;;;;;5.67;5.00;;;;;;;;5093585;27;46068;-82
2021/09/20 06:19:47;;;;;;;;;7.67;6.00;;;;;;;;5095451;27;45382;-82
2021/09/20 06:22:13;;;;;;;;;9.25;7.00;;;;;;;;5096591;27;45466;-83
2021/09/20 06:24:38;;;;;;;;;9.25;6.25;;;;;;;;5095222;27;45418;-82
2021/09/20 06:27:03;;;;;;;;;12.00;9.33;;;;;;;;5097262;27;45345;-82
2021/09/20 06:29:28;;;;;;;;;7.00;7.00;;;;;;;;5094740;27;45683;-82
2021/09/20 06:31:54;;;;;;;;;13.00;10.00;;;;;;;;5092931;27;45334;-83
2021/09/20 06:34:19;;;;;;;;;13.25;8.75;;;;;;;;5097397;27;46334;-82
2021/09/20 06:36:44;;;;;;;;;11.33;8.67;;;;;;;;5095353;27;45373;-83
2021/09/20 06:39:09;;;;;;;;;11.00;10.75;;;;;;;;5095886;27;45536;-83
2021/09/20 06:41:35;;;;;;;;;10.75;10.75;;;;;;;;5095801;27;45546;-82
2021/09/20 06:44:03;;;;;;;;;10.00;9.00;;;;;;;;5086886;27;46521;-82
2021/09/20 06:46:28;;;;;;;;;13.25;10.50;;;;;;;;5099538;27;45545;-82
2021/09/20 06:48:55;;;;;;;;;16.25;13.75;;;;;;;;5094722;27;45669;-83
2021/09/20 06:51:20;;;;;;;;;15.00;10.75;;;;;;;;5095135;27;45509;-83
2021/09/20 06:53:46;;;;;;;;;15.33;14.00;;;;;;;;5095215;27;46231;-83
2021/09/20 06:56:11;;;;;;;;;14.75;11.50;;;;;;;;5093766;27;45452;-83
2021/09/20 06:58:36;;;;;;;;;13.33;11.33;;;;;;;;5096423;27;45553;-82
2021/09/20 07:01:01;;;;;;;;;14.00;11.67;;;;;;;;5091173;27;45477;-83
2021/09/20 07:03:27;;;;;;;;;23.33;14.33;;;;;;;;5095044;27;47752;-82
2021/09/20 07:05:52;;;;;;;;;21.33;14.67;;;;;;;;5103184;27;45401;-82
2021/09/20 07:08:18;;;;;;;;;17.75;15.75;;;;;;;;5092306;27;45442;-83
2021/09/20 07:10:43;;;;;;;;;14.00;12.67;;;;;;;;5095154;27;45504;-82
2021/09/20 07:13:11;;;;;;;;;18.67;15.67;;;;;;;;5095382;27;46724;-82
2021/09/20 07:15:37;;;;;;;;;18.50;13.50;;;;;;;;5095919;27;45842;-83
2021/09/20 07:18:03;;;;;;;;;18.75;14.50;;;;;;;;5096792;27;45371;-83
2021/09/20 07:20:28;;;;;;;;;20.75;15.25;;;;;;;;5094677;27;45488;-83
2021/09/20 07:22:53;;;;;;;;;16.25;13.75;;;;;;;;5092566;27;45604;-83
2021/09/20 07:25:19;;;;;;;;;22.00;17.00;;;;;;;;5097351;27;45419;-83
2021/09/20 07:27:45;;;;;;;;;15.50;13.25;;;;;;;;5094664;27;45425;-81
2021/09/20 07:30:14;;;;;;;;;18.67;16.33;;;;;;;;5094621;27;45406;-81
2021/09/20 07:32:40;;;;;;;;;18.00;13.75;;;;;;;;5083089;27;45514;-84
2021/09/20 07:35:05;;;;;;;;;17.33;13.67;;;;;;;;5090309;27;45412;-83
2021/09/20 07:37:30;;;;;;;;;15.50;12.50;;;;;;;;5098215;27;45288;-84
2021/09/20 07:39:57;;;;;;;;;16.33;14.67;;;;;;;;5095664;27;45281;-83
2021/09/20 07:42:23;;;;;;;;;15.25;14.50;;;;;;;;5094685;27;45562;-83
2021/09/20 07:44:48;;;;;;;;;17.33;13.00;;;;;;;;5093891;27;45645;-83
2021/09/20 07:47:13;;;;;;;;;18.00;14.00;;;;;;;;5092197;27;45492;-84
2021/09/20 07:49:39;;;;;;;;;15.00;10.33;;;;;;;;5088832;27;45583;-82
2021/09/20 07:52:04;;;;;;;;;17.00;13.75;;;;;;;;5095489;27;51497;-78
2021/09/20 07:54:29;;;;;;;;;14.50;13.00;;;;;;;;5096879;27;46538;-78
2021/09/20 07:56:55;;;;;;;;;13.67;13.00;;;;;;;;5096082;27;45483;-78
2021/09/20 07:59:20;;;;;;;;;19.00;14.33;;;;;;;;5094350;27;45340;-79
2021/09/20 08:01:45;;;;;;;;;13.33;13.33;;;;;;;;5092447;27;45606;-78
2021/09/20 08:04:12;;;;;;;;;16.25;12.00;;;;;;;;5093838;27;45814;-78
2021/09/20 08:06:37;;;;;;;;;14.67;11.67;;;;;;;;5093278;27;45495;-78
2021/09/20 08:09:02;;;;;;;;;11.33;10.33;;;;;;;;5088542;27;45494;-78
2021/09/20 08:11:29;;;;;;;;;16.25;13.00;;;;;;;;5084569;27;45601;-78
2021/09/20 08:13:54;;;;;;;;;14.75;13.25;;;;;;;;5096703;27;45763;-78
2021/09/20 08:16:19;;;;;;;;;16.75;12.50;;;;;;;;5099128;27;46507;-79
2021/09/20 08:18:45;;;;;;;;;16.33;13.33;;;;;;;;5092101;27;45501;-78
2021/09/20 08:21:10;;;;;;;;;20.25;13.00;;;;;;;;5096238;27;46898;-78
2021/09/20 08:23:36;;;;;;;;;15.25;13.50;;;;;;;;5094047;27;45484;-79
2021/09/20 08:26:01;;;;;;;;;15.00;14.00;;;;;;;;5088420;27;45502;-79
2021/09/20 08:28:26;;;;;;;;;11.75;11.75;;;;;;;;5100062;27;45678;-79
2021/09/20 08:30:52;;;;;;;;;14.33;11.00;;;;;;;;5087572;27;46059;-78
2021/09/20 08:33:19;;;;;;;;;17.25;10.75;;;;;;;;5091741;27;45509;-78
2021/09/20 08:35:44;;;;;;;;;13.50;9.75;;;;;;;;5100586;27;45643;-78
2021/09/20 08:38:09;;;;;;;;;15.00;13.67;;;;;;;;5094374;27;45463;-78
2021/09/20 08:40:34;;;;;;;;;14.00;12.33;;;;;;;;5094728;27;45477;-78
2021/09/20 08:43:00;;;;;;;;;14.67;12.67;;;;;;;;5096665;27;45437;-78
2021/09/20 08:45:27;;;;;;;;;5.75;5.25;;;;;;;;5080859;27;45597;-79
2021/09/20 08:47:53;;;;;;;;;13.75;12.75;;;;;;;;5077810;27;45702;-78
2021/09/20 08:50:21;;;;;;;;;16.00;13.50;;;;;;;;5081692;27;46491;-80
2021/09/20 08:52:46;;;;;;;;;16.75;12.00;;;;;;;;5087528;27;45589;-80
2021/09/20 08:55:12;;;;;;;;;17.75;15.25;;;;;;;;5083660;27;45583;-80
2021/09/20 08:57:37;;;;;;;;;17.50;13.50;;;;;;;;5084949;27;45509;-80
2021/09/20 09:00:04;;;;;;;;;19.25;13.75;;;;;;;;5086576;27;45451;-80
2021/09/20 09:02:31;;;;;;;;;17.00;12.00;;;;;;;;5087566;27;45595;-81
2021/09/20 09:05:10;;;;;;;;;14.50;14.00;;;;;;;;5101908;27;45586;-81
2021/09/20 09:07:40;;;;;;;;;16.00;13.25;;;;;;;;5087785;27;45505;-80
2021/09/20 09:10:06;;;;;;;;;17.50;14.75;;;;;;;;5083148;27;46460;-80
2021/09/20 09:12:32;;;;;;;;;18.00;14.00;;;;;;;;5086540;27;45909;-80
2021/09/20 09:14:58;;;;;;;;;16.75;14.00;;;;;;;;5084560;27;45574;-80
2021/09/20 09:17:26;;;;;;;;;16.75;14.00;;;;;;;;5103459;27;45663;-80
2021/09/20 09:19:56;;;;;;;;;17.75;11.75;;;;;;;;5087435;27;46459;-80
2021/09/20 09:22:25;;;;;;;;;12.75;11.25;;;;;;;;5090024;27;45709;-81
2021/09/20 09:25:01;;;;;;;;;15.00;11.00;;;;;;;;5087711;27;45449;-81
2021/09/20 09:27:27;;;;;;;;;15.25;13.50;;;;;;;;5083695;27;45491;-81
2021/09/20 09:30:02;;;;;;;;;17.75;13.00;;;;;;;;5087772;27;46073;-80
2021/09/20 09:32:27;;;;;;;;;15.75;14.00;;;;;;;;5098989;27;46423;-81
2021/09/20 09:34:55;;;;;;;;;19.33;16.33;;;;;;;;5089489;27;45461;-81
2021/09/20 09:37:20;;;;;;;;;21.00;14.50;;;;;;;;5094104;27;45738;-81
2021/09/20 09:39:45;;;;;;;;;17.00;13.00;;;;;;;;5082839;27;45352;-80
2021/09/20 09:42:25;;;;;;;;;16.00;10.50;;;;;;;;5092262;27;45486;-79
2021/09/20 09:44:50;;;;;;;;;17.75;12.25;;;;;;;;5081265;27;45626;-80
2021/09/20 09:47:26;;;;;;;;;10.75;10.25;;;;;;;;5083641;27;45651;-82
2021/09/20 09:50:10;;;;;;;;;11.25;11.00;;;;;;;;5080702;27;45561;-80
2021/09/20 09:52:35;;;;;;;;;13.00;10.50;;;;;;;;5089153;27;45918;-80
2021/09/20 09:55:02;;;;;;;;;11.50;9.50;;;;;;;;5088798;27;45729;-80
2021/09/20 09:57:27;;;;;;;;;12.25;10.75;;;;;;;;5083425;27;45670;-80
2021/09/20 09:59:57;;;;;;;;;13.00;9.67;;;;;;;;5089386;27;45574;-80
2021/09/20 10:02:27;;;;;;;;;11.25;8.75;;;;;;;;5089806;27;45711;-80
2021/09/20 10:04:54;;;;;;;;;9.25;9.25;;;;;;;;5092345;27;45787;-83
2021/09/20 10:07:39;;;;;;;;;9.00;8.50;;;;;;;;5094328;27;45488;-82
2021/09/20 10:10:09;;;;;;;;;9.75;9.50;;;;;;;;5088456;27;47329;-82
2021/09/20 10:12:35;;;;;;;;;11.00;9.00;;;;;;;;5087407;27;45560;-81
2021/09/20 10:15:01;;;;;;;;;8.75;8.00;;;;;;;;5087676;27;45478;-81
2021/09/20 10:17:27;;;;;;;;;9.50;8.00;;;;;;;;5088513;27;45528;-81
2021/09/20 10:19:53;;;;;;;;;10.75;8.00;;;;;;;;5090358;27;45529;-81
2021/09/20 10:22:19;;;;;;;;;8.25;8.00;;;;;;;;5093072;27;45568;-81
2021/09/20 10:24:46;;;;;;;;;10.00;8.25;;;;;;;;5086586;27;45800;-82
2021/09/20 10:27:12;;;;;;;;;10.00;7.25;;;;;;;;5082685;27;45533;-82
2021/09/20 10:29:39;;;;;;;;;10.25;8.75;;;;;;;;5086582;27;45913;-82
2021/09/20 10:32:05;;;;;;;;;10.25;7.00;;;;;;;;5084947;27;45726;-81
2021/09/20 10:34:30;;;;;;;;;8.00;7.50;;;;;;;;5089818;27;45553;-80
2021/09/20 10:37:03;;;;;;;;;8.50;7.25;;;;;;;;5089328;27;45360;-81
2021/09/20 10:39:47;;;;;;;;;8.00;8.00;;;;;;;;5083292;27;46465;-81
2021/09/20 10:42:31;;;;;;;;;7.25;7.25;;;;;;;;5085797;27;45623;-81
2021/09/20 10:44:57;;;;;;;;;10.50;8.00;;;;;;;;5075056;27;45425;-82
2021/09/20 10:47:22;;;;;;;;;7.50;7.50;;;;;;;;5080908;27;45854;-82
2021/09/20 10:49:48;;;;;;;;;11.00;9.00;;;;;;;;5080341;27;45576;-82
2021/09/20 10:52:14;;;;;;;;;10.75;9.00;;;;;;;;5073065;27;45961;-79
2021/09/20 10:54:40;;;;;;;;;12.00;9.50;;;;;;;;5079600;27;45691;-80
2021/09/20 10:57:11;;;;;;;;;7.25;7.00;;;;;;;;5066365;27;45716;-82
2021/09/20 10:59:37;;;;;;;;;14.25;9.25;;;;;;;;5078706;27;45925;-81
2021/09/20 11:02:05;;;;;;;;;8.33;7.00;;;;;;;;5077318;27;45571;-82
2021/09/20 11:04:36;;;;;;;;;11.25;10.00;;;;;;;;5094598;27;45688;-81
2021/09/20 11:07:11;;;;;;;;;9.00;6.00;;;;;;;;5091252;27;45621;-82
2021/09/20 11:09:41;;;;;;;;;7.25;7.00;;;;;;;;5079925;27;46498;-82
2021/09/20 11:12:08;;;;;;;;;10.00;10.00;;;;;;;;5084394;27;45982;-81
2021/09/20 11:14:38;;;;;;;;;9.50;8.25;;;;;;;;5077341;27;45537;-81
2021/09/20 11:17:18;;;;;;;;;8.75;8.75;;;;;;;;5077548;27;45401;-81
2021/09/20 11:19:44;;;;;;;;;10.25;8.00;;;;;;;;5090587;27;46926;-82
2021/09/20 11:22:13;;;;;;;;;10.00;9.50;;;;;;;;5073486;27;46142;-82
2021/09/20 11:24:46;;;;;;;;;12.50;10.00;;;;;;;;5077714;27;46079;-81
2021/09/20 11:27:23;;;;;;;;;11.00;9.25;;;;;;;;5077106;27;45427;-82
2021/09/20 11:29:49;;;;;;;;;12.50;10.00;;;;;;;;5075326;27;45698;-84
2021/09/20 11:32:14;;;;;;;;;14.25;11.75;;;;;;;;5081360;27;45684;-89
2021/09/20 11:34:48;;;;;;;;;11.33;10.33;;;;;;;;5083995;27;45510;-88
2021/09/20 11:37:24;;;;;;;;;12.00;11.25;;;;;;;;5107072;27;45442;-86
2021/09/20 11:39:51;;;;;;;;;11.00;10.25;;;;;;;;5084481;27;45583;-87
2021/09/20 11:42:19;;;;;;;;;11.00;9.50;;;;;;;;5095907;27;45481;-83
2021/09/20 11:44:47;;;;;;;;;11.25;10.00;;;;;;;;5090022;27;45428;-83
2021/09/20 11:47:13;;;;;;;;;9.00;8.75;;;;;;;;5087181;27;45697;-83
2021/09/20 11:49:38;;;;;;;;;16.75;14.25;;;;;;;;5090392;27;46002;-84
2021/09/20 11:52:03;;;;;;;;;10.00;10.00;;;;;;;;5082289;27;45450;-84
2021/09/20 11:54:31;;;;;;;;;10.75;10.75;;;;;;;;5080320;27;45600;-84
2021/09/20 11:57:08;;;;;;;;;8.75;8.75;;;;;;;;5081295;27;45501;-84
2021/09/20 11:59:34;;;;;;;;;11.50;9.50;;;;;;;;5088551;27;45838;-84
2021/09/20 12:01:59;;;;;;;;;10.67;9.00;;;;;;;;5089161;27;46056;-85
2021/09/20 12:04:43;;;;;;;;;11.67;8.67;;;;;;;;5092065;27;45524;-82
2021/09/20 12:07:08;;;;;;;;;9.75;9.00;;;;;;;;5091096;27;45493;-85
2021/09/20 12:09:35;;;;;;;;;8.00;8.00;;;;;;;;5078762;27;47339;-84
2021/09/20 12:12:05;;;;;;;;;12.25;9.50;;;;;;;;5081355;27;45507;-84
2021/09/20 12:14:30;;;;;;;;;9.00;7.25;;;;;;;;5091182;27;45664;-85
2021/09/20 12:16:56;;;;;;;;;10.00;7.67;;;;;;;;5089404;27;45451;-85
2021/09/20 12:19:22;;;;;;;;;11.50;7.50;;;;;;;;5089398;27;47319;-85
2021/09/20 12:21:57;;;;;;;;;10.00;8.00;;;;;;;;5086456;27;45493;-85
2021/09/20 12:24:22;;;;;;;;;6.25;6.25;;;;;;;;5090384;27;45601;-84
2021/09/20 12:26:48;;;;;;;;;10.67;8.67;;;;;;;;5083733;27;45771;-84
2021/09/20 12:29:13;;;;;;;;;8.00;8.00;;;;;;;;5088178;27;46212;-84
2021/09/20 12:31:40;;;;;;;;;8.50;8.50;;;;;;;;5091622;27;45573;-84
2021/09/20 12:34:09;;;;;;;;;12.00;8.25;;;;;;;;5087655;27;45421;-84
2021/09/20 12:36:35;;;;;;;;;10.25;10.00;;;;;;;;5077441;27;45344;-84
2021/09/20 12:39:07;;;;;;;;;8.25;6.00;;;;;;;;5084294;27;46275;-84
2021/09/20 12:41:42;;;;;;;;;6.00;6.00;;;;;;;;5086466;27;45668;-84
2021/09/20 12:44:08;;;;;;;;;7.00;7.00;;;;;;;;5102744;27;45522;-84
2021/09/20 12:46:34;;;;;;;;;8.50;7.00;;;;;;;;5087875;27;45548;-84
2021/09/20 12:49:00;;;;;;;;;9.00;6.50;;;;;;;;5086539;27;46026;-84
2021/09/20 12:51:31;;;;;;;;;8.50;8.50;;;;;;;;5087513;27;46078;-84
2021/09/20 12:53:57;;;;;;;;;7.50;7.25;;;;;;;;5101620;27;45744;-85
2021/09/20 12:56:34;;;;;;;;;9.75;7.25;;;;;;;;5087526;27;45470;-80
2021/09/20 12:59:11;;;;;;;;;7.00;6.00;;;;;;;;5067694;27;45756;-84
2021/09/20 13:01:42;;;;;;;;;8.25;6.00;;;;;;;;5065675;27;45612;-83
2021/09/20 13:04:07;;;;;;;;;9.25;7.00;;;;;;;;5066249;28;45638;-84
2021/09/20 13:06:33;;;;;;;;;7.00;6.00;;;;;;;;5061751;27;45565;-83
2021/09/20 13:08:59;;;;;;;;;7.33;7.00;;;;;;;;5065200;27;45501;-84
2021/09/20 13:11:24;;;;;;;;;6.00;5.75;;;;;;;;5060552;27;45655;-83
2021/09/20 13:13:49;;;;;;;;;6.25;6.00;;;;;;;;5074147;27;45522;-83
2021/09/20 13:16:14;;;;;;;;;6.33;5.33;;;;;;;;5069630;27;45458;-83
2021/09/20 13:18:41;;;;;;;;;5.75;5.75;;;;;;;;5064433;27;46077;-83
2021/09/20 13:21:26;;;;;;;;;6.00;6.00;;;;;;;;5074527;27;45652;-82
2021/09/20 13:23:52;;;;;;;;;4.00;3.75;;;;;;;;5065649;27;45668;-83
2021/09/20 13:26:29;;;;;;;;;7.00;7.00;;;;;;;;5069441;27;45495;-83
2021/09/20 13:28:54;;;;;;;;;6.00;6.00;;;;;;;;5066069;27;46706;-83
2021/09/20 13:31:19;;;;;;;;;6.00;6.00;;;;;;;;5059480;28;45525;-84
2021/09/20 13:33:45;;;;;;;;;5.00;4.67;;;;;;;;5069924;27;45650;-83
2021/09/20 13:36:11;;;;;;;;;5.25;4.25;;;;;;;;5065658;27;45440;-83
2021/09/20 13:38:38;;;;;;;;;5.75;5.75;;;;;;;;5069256;27;45519;-83
2021/09/20 13:41:04;;;;;;;;;4.00;4.00;;;;;;;;5084781;27;45398;-82
2021/09/20 13:43:32;;;;;;;;;4.00;4.00;;;;;;;;5071090;28;45527;-82
2021/09/20 13:45:57;;;;;;;;;3.00;3.00;;;;;;;;5062348;27;46291;-82
2021/09/20 13:48:23;;;;;;;;;3.50;3.00;;;;;;;;5067208;27;46157;-82
2021/09/20 13:50:50;;;;;;;;;3.00;3.00;;;;;;;;5067136;27;45499;-82
2021/09/20 13:53:15;;;;;;;;;5.75;4.00;;;;;;;;5067672;28;45734;-82
2021/09/20 13:55:41;;;;;;;;;3.25;3.25;;;;;;;;5064554;27;45477;-82
2021/09/20 13:58:07;;;;;;;;;5.25;3.25;;;;;;;;5085308;27;45767;-81
2021/09/20 14:00:32;;;;;;;;;4.50;3.50;;;;;;;;5090035;27;45552;-82
2021/09/20 14:02:58;;;;;;;;;4.50;4.00;;;;;;;;5075516;27;45601;-81
2021/09/20 14:05:23;;;;;;;;;4.50;2.00;;;;;;;;5084312;27;45415;-81
2021/09/20 14:07:48;;;;;;;;;4.00;3.00;;;;;;;;5080441;27;46191;-80
2021/09/20 14:10:16;;;;;;;;;3.25;2.00;;;;;;;;5090012;27;45603;-82
2021/09/20 14:12:41;;;;;;;;;2.25;2.25;;;;;;;;5077678;27;45516;-80
2021/09/20 14:15:07;;;;;;;;;1.75;1.75;;;;;;;;5091010;27;45782;-82
2021/09/20 14:17:32;;;;;;;;;3.25;2.25;;;;;;;;5089845;27;54187;-81
2021/09/20 14:19:57;;;;;;;;;3.00;2.00;;;;;;;;5087099;27;46174;-81
2021/09/20 14:22:25;;;;;;;;;0.67;0.67;;;;;;;;5093608;27;45579;-77
2021/09/20 14:24:51;;;;;;;;;1.75;1.75;;;;;;;;5083533;27;45568;-75
2021/09/20 14:27:18;;;;;;;;;3.00;2.50;;;;;;;;5083675;27;45426;-75
2021/09/20 14:29:43;;;;;;;;;2.00;2.00;;;;;;;;5090893;27;46351;-75
2021/09/20 14:32:09;;;;;;;;;2.33;1.67;;;;;;;;5089639;27;45640;-75